sensor_id;sensor_type;location;lat;lon;timestamp;P1;durP1;ratioP1;P2;durP2;ratioP2
5010;SDS011;2524;54.364;10.072;2023-03-14T00:00:55;8.33;;;3.10;;
5010;SDS011;2524;54.364;10.072;2023-03-14T00:03:21;8.47;;;3.50;;
5010;SDS011;2524;54.364;10.072;2023-03-14T00:05:46;13.27;;;3.67;;
5010;SDS011;2524;54.364;10.072;2023-03-14T00:08:12;23.03;;;4.80;;
5010;SDS011;2524;54.364;10.072;2023-03-14T00:10:38;11.67;;;3.87;;
5010;SDS011;2524;54.364;10.072;2023-03-14T00:13:03;15.33;;;4.40;;
5010;SDS011;2524;54.364;10.072;2023-03-14T00:15:29;20.80;;;4.70;;
5010;SDS011;2524;54.364;10.072;2023-03-14T00:17:56;9.43;;;3.40;;
5010;SDS011;2524;54.364;10.072;2023-03-14T00:20:22;8.10;;;3.73;;
5010;SDS011;2524;54.364;10.072;2023-03-14T00:22:47;8.13;;;3.53;;
5010;SDS011;2524;54.364;10.072;2023-03-14T00:25:13;18.70;;;4.70;;
5010;SDS011;2524;54.364;10.072;2023-03-14T00:27:39;10.77;;;3.17;;
5010;SDS011;2524;54.364;10.072;2023-03-14T00:30:05;16.57;;;4.80;;
5010;SDS011;2524;54.364;10.072;2023-03-14T00:32:32;20.30;;;5.80;;
5010;SDS011;2524;54.364;10.072;2023-03-14T00:34:58;13.83;;;3.90;;
5010;SDS011;2524;54.364;10.072;2023-03-14T00:37:25;10.57;;;3.40;;
5010;SDS011;2524;54.364;10.072;2023-03-14T00:39:51;13.30;;;3.53;;
5010;SDS011;2524;54.364;10.072;2023-03-14T00:42:17;18.33;;;4.10;;
5010;SDS011;2524;54.364;10.072;2023-03-14T00:44:42;18.90;;;4.37;;
5010;SDS011;2524;54.364;10.072;2023-03-14T00:47:08;13.70;;;3.87;;
5010;SDS011;2524;54.364;10.072;2023-03-14T00:49:33;17.00;;;3.83;;
5010;SDS011;2524;54.364;10.072;2023-03-14T00:51:59;18.80;;;4.57;;
5010;SDS011;2524;54.364;10.072;2023-03-14T00:54:25;10.97;;;3.87;;
5010;SDS011;2524;54.364;10.072;2023-03-14T00:56:51;19.87;;;4.80;;
5010;SDS011;2524;54.364;10.072;2023-03-14T00:59:16;15.47;;;3.90;;
5010;SDS011;2524;54.364;10.072;2023-03-14T01:01:42;13.70;;;3.13;;
5010;SDS011;2524;54.364;10.072;2023-03-14T01:04:08;14.27;;;4.13;;
5010;SDS011;2524;54.364;10.072;2023-03-14T01:06:34;10.27;;;3.60;;
5010;SDS011;2524;54.364;10.072;2023-03-14T01:09:00;16.70;;;4.50;;
5010;SDS011;2524;54.364;10.072;2023-03-14T01:11:30;12.40;;;3.83;;
5010;SDS011;2524;54.364;10.072;2023-03-14T01:13:57;15.40;;;3.53;;
5010;SDS011;2524;54.364;10.072;2023-03-14T01:16:24;13.20;;;3.63;;
5010;SDS011;2524;54.364;10.072;2023-03-14T01:18:51;17.00;;;4.07;;
5010;SDS011;2524;54.364;10.072;2023-03-14T01:21:18;13.97;;;4.77;;
5010;SDS011;2524;54.364;10.072;2023-03-14T01:23:44;12.17;;;3.83;;
5010;SDS011;2524;54.364;10.072;2023-03-14T01:26:11;19.07;;;4.53;;
5010;SDS011;2524;54.364;10.072;2023-03-14T01:28:38;11.63;;;3.80;;
5010;SDS011;2524;54.364;10.072;2023-03-14T01:31:05;14.60;;;4.07;;
5010;SDS011;2524;54.364;10.072;2023-03-14T01:33:32;20.40;;;4.90;;
5010;SDS011;2524;54.364;10.072;2023-03-14T01:35:58;19.27;;;4.40;;
5010;SDS011;2524;54.364;10.072;2023-03-14T01:38:24;14.00;;;3.77;;
5010;SDS011;2524;54.364;10.072;2023-03-14T01:40:49;15.50;;;4.80;;
5010;SDS011;2524;54.364;10.072;2023-03-14T01:43:16;18.77;;;3.90;;
5010;SDS011;2524;54.364;10.072;2023-03-14T01:51:25;8.57;;;3.47;;
5010;SDS011;2524;54.364;10.072;2023-03-14T01:53:59;14.00;;;4.80;;
5010;SDS011;2524;54.364;10.072;2023-03-14T01:56:35;13.00;;;4.47;;
5010;SDS011;2524;54.364;10.072;2023-03-14T01:59:02;20.43;;;4.30;;
5010;SDS011;2524;54.364;10.072;2023-03-14T02:01:31;15.03;;;3.63;;
5010;SDS011;2524;54.364;10.072;2023-03-14T02:03:58;12.83;;;4.03;;
5010;SDS011;2524;54.364;10.072;2023-03-14T02:06:28;16.00;;;4.23;;
5010;SDS011;2524;54.364;10.072;2023-03-14T02:09:00;11.20;;;3.50;;
5010;SDS011;2524;54.364;10.072;2023-03-14T02:11:26;18.90;;;4.10;;
5010;SDS011;2524;54.364;10.072;2023-03-14T02:13:55;11.00;;;3.27;;
5010;SDS011;2524;54.364;10.072;2023-03-14T02:16:22;16.93;;;4.10;;
5010;SDS011;2524;54.364;10.072;2023-03-14T02:18:48;15.53;;;4.70;;
5010;SDS011;2524;54.364;10.072;2023-03-14T02:26:38;10.00;;;3.33;;
5010;SDS011;2524;54.364;10.072;2023-03-14T02:29:08;12.33;;;3.33;;
5010;SDS011;2524;54.364;10.072;2023-03-14T02:31:34;15.40;;;3.87;;
5010;SDS011;2524;54.364;10.072;2023-03-14T02:34:00;12.20;;;3.30;;
5010;SDS011;2524;54.364;10.072;2023-03-14T02:36:27;15.63;;;3.30;;
5010;SDS011;2524;54.364;10.072;2023-03-14T02:41:31;10.97;;;3.80;;
5010;SDS011;2524;54.364;10.072;2023-03-14T02:43:57;9.73;;;3.67;;
5010;SDS011;2524;54.364;10.072;2023-03-14T02:46:23;17.60;;;3.77;;
5010;SDS011;2524;54.364;10.072;2023-03-14T02:48:53;11.83;;;4.07;;
5010;SDS011;2524;54.364;10.072;2023-03-14T02:51:21;15.30;;;4.27;;
5010;SDS011;2524;54.364;10.072;2023-03-14T02:53:47;21.37;;;4.27;;
5010;SDS011;2524;54.364;10.072;2023-03-14T02:56:12;13.37;;;3.60;;
5010;SDS011;2524;54.364;10.072;2023-03-14T02:58:38;12.10;;;3.77;;
5010;SDS011;2524;54.364;10.072;2023-03-14T03:01:04;16.20;;;4.07;;
5010;SDS011;2524;54.364;10.072;2023-03-14T03:03:30;11.80;;;3.60;;
5010;SDS011;2524;54.364;10.072;2023-03-14T03:05:56;9.13;;;3.20;;
5010;SDS011;2524;54.364;10.072;2023-03-14T03:08:22;13.37;;;3.83;;
5010;SDS011;2524;54.364;10.072;2023-03-14T03:10:49;7.43;;;3.13;;
5010;SDS011;2524;54.364;10.072;2023-03-14T03:13:15;11.23;;;3.60;;
5010;SDS011;2524;54.364;10.072;2023-03-14T03:15:42;12.47;;;3.73;;
5010;SDS011;2524;54.364;10.072;2023-03-14T03:18:08;9.70;;;3.50;;
5010;SDS011;2524;54.364;10.072;2023-03-14T03:20:33;10.03;;;3.57;;
5010;SDS011;2524;54.364;10.072;2023-03-14T03:22:59;14.77;;;3.63;;
5010;SDS011;2524;54.364;10.072;2023-03-14T03:25:25;11.10;;;3.67;;
5010;SDS011;2524;54.364;10.072;2023-03-14T03:27:51;11.33;;;3.50;;
5010;SDS011;2524;54.364;10.072;2023-03-14T03:30:17;9.77;;;2.87;;
5010;SDS011;2524;54.364;10.072;2023-03-14T03:32:43;8.07;;;2.80;;
5010;SDS011;2524;54.364;10.072;2023-03-14T03:35:09;10.00;;;3.47;;
5010;SDS011;2524;54.364;10.072;2023-03-14T03:37:35;16.70;;;3.60;;
5010;SDS011;2524;54.364;10.072;2023-03-14T03:40:01;8.70;;;3.03;;
5010;SDS011;2524;54.364;10.072;2023-03-14T03:42:29;7.50;;;3.07;;
5010;SDS011;2524;54.364;10.072;2023-03-14T03:44:55;12.73;;;3.80;;
5010;SDS011;2524;54.364;10.072;2023-03-14T03:47:20;12.20;;;3.23;;
5010;SDS011;2524;54.364;10.072;2023-03-14T03:49:46;10.20;;;3.90;;
5010;SDS011;2524;54.364;10.072;2023-03-14T03:52:11;16.57;;;4.23;;
5010;SDS011;2524;54.364;10.072;2023-03-14T03:54:37;14.57;;;3.80;;
5010;SDS011;2524;54.364;10.072;2023-03-14T03:57:03;10.63;;;3.53;;
5010;SDS011;2524;54.364;10.072;2023-03-14T03:59:28;7.40;;;2.73;;
5010;SDS011;2524;54.364;10.072;2023-03-14T04:01:54;4.80;;;2.87;;
5010;SDS011;2524;54.364;10.072;2023-03-14T04:04:19;3.37;;;2.30;;
5010;SDS011;2524;54.364;10.072;2023-03-14T04:06:45;12.37;;;4.40;;
5010;SDS011;2524;54.364;10.072;2023-03-14T04:09:11;7.10;;;2.97;;
5010;SDS011;2524;54.364;10.072;2023-03-14T04:11:37;7.50;;;3.43;;
5010;SDS011;2524;54.364;10.072;2023-03-14T04:14:03;7.27;;;3.90;;
5010;SDS011;2524;54.364;10.072;2023-03-14T04:16:30;8.47;;;4.47;;
5010;SDS011;2524;54.364;10.072;2023-03-14T04:18:58;9.17;;;3.93;;
5010;SDS011;2524;54.364;10.072;2023-03-14T04:21:24;6.00;;;3.20;;
5010;SDS011;2524;54.364;10.072;2023-03-14T04:23:50;6.27;;;3.00;;
5010;SDS011;2524;54.364;10.072;2023-03-14T04:26:15;5.23;;;3.20;;
5010;SDS011;2524;54.364;10.072;2023-03-14T04:28:41;7.10;;;3.40;;
5010;SDS011;2524;54.364;10.072;2023-03-14T04:31:08;4.63;;;3.40;;
5010;SDS011;2524;54.364;10.072;2023-03-14T04:33:37;8.90;;;3.90;;
5010;SDS011;2524;54.364;10.072;2023-03-14T04:36:06;7.27;;;3.20;;
5010;SDS011;2524;54.364;10.072;2023-03-14T04:38:33;4.70;;;3.30;;
5010;SDS011;2524;54.364;10.072;2023-03-14T04:40:59;2.90;;;2.60;;
5010;SDS011;2524;54.364;10.072;2023-03-14T04:43:25;3.47;;;2.57;;
5010;SDS011;2524;54.364;10.072;2023-03-14T04:45:55;5.50;;;2.60;;
5010;SDS011;2524;54.364;10.072;2023-03-14T04:48:22;7.13;;;3.10;;
5010;SDS011;2524;54.364;10.072;2023-03-14T04:50:48;3.60;;;2.50;;
5010;SDS011;2524;54.364;10.072;2023-03-14T04:53:14;5.63;;;2.90;;
5010;SDS011;2524;54.364;10.072;2023-03-14T04:55:41;5.70;;;2.53;;
5010;SDS011;2524;54.364;10.072;2023-03-14T04:58:07;4.20;;;2.60;;
5010;SDS011;2524;54.364;10.072;2023-03-14T05:00:32;5.43;;;2.30;;
5010;SDS011;2524;54.364;10.072;2023-03-14T05:02:58;2.47;;;2.00;;
5010;SDS011;2524;54.364;10.072;2023-03-14T05:05:24;4.30;;;2.20;;
5010;SDS011;2524;54.364;10.072;2023-03-14T05:07:49;4.00;;;2.73;;
5010;SDS011;2524;54.364;10.072;2023-03-14T05:10:15;7.17;;;3.10;;
5010;SDS011;2524;54.364;10.072;2023-03-14T05:12:41;4.50;;;2.73;;
5010;SDS011;2524;54.364;10.072;2023-03-14T05:15:07;5.10;;;2.20;;
5010;SDS011;2524;54.364;10.072;2023-03-14T05:17:33;5.03;;;2.57;;
5010;SDS011;2524;54.364;10.072;2023-03-14T05:19:59;4.77;;;2.43;;
5010;SDS011;2524;54.364;10.072;2023-03-14T05:22:24;6.80;;;2.60;;
5010;SDS011;2524;54.364;10.072;2023-03-14T05:24:50;4.20;;;2.80;;
5010;SDS011;2524;54.364;10.072;2023-03-14T05:27:16;2.63;;;2.23;;
5010;SDS011;2524;54.364;10.072;2023-03-14T05:29:41;2.20;;;2.10;;
5010;SDS011;2524;54.364;10.072;2023-03-14T05:32:07;5.63;;;2.53;;
5010;SDS011;2524;54.364;10.072;2023-03-14T05:34:33;5.20;;;2.83;;
5010;SDS011;2524;54.364;10.072;2023-03-14T05:36:58;2.63;;;2.43;;
5010;SDS011;2524;54.364;10.072;2023-03-14T05:39:24;3.53;;;2.83;;
5010;SDS011;2524;54.364;10.072;2023-03-14T05:41:50;3.23;;;2.00;;
5010;SDS011;2524;54.364;10.072;2023-03-14T05:44:15;2.47;;;2.27;;
5010;SDS011;2524;54.364;10.072;2023-03-14T05:46:41;3.57;;;2.27;;
5010;SDS011;2524;54.364;10.072;2023-03-14T05:49:08;2.80;;;2.03;;
5010;SDS011;2524;54.364;10.072;2023-03-14T05:51:34;2.97;;;1.80;;
5010;SDS011;2524;54.364;10.072;2023-03-14T05:53:59;5.90;;;2.30;;
5010;SDS011;2524;54.364;10.072;2023-03-14T05:56:25;4.43;;;2.63;;
5010;SDS011;2524;54.364;10.072;2023-03-14T05:58:50;2.50;;;2.30;;
5010;SDS011;2524;54.364;10.072;2023-03-14T06:01:16;3.70;;;2.17;;
5010;SDS011;2524;54.364;10.072;2023-03-14T06:03:41;4.70;;;2.30;;
5010;SDS011;2524;54.364;10.072;2023-03-14T06:06:07;3.60;;;2.20;;
5010;SDS011;2524;54.364;10.072;2023-03-14T06:08:33;4.43;;;2.50;;
5010;SDS011;2524;54.364;10.072;2023-03-14T06:10:59;5.90;;;2.40;;
5010;SDS011;2524;54.364;10.072;2023-03-14T06:13:27;6.23;;;2.37;;
5010;SDS011;2524;54.364;10.072;2023-03-14T06:15:52;7.90;;;2.33;;
5010;SDS011;2524;54.364;10.072;2023-03-14T06:18:18;6.70;;;2.87;;
5010;SDS011;2524;54.364;10.072;2023-03-14T06:20:44;2.90;;;2.10;;
5010;SDS011;2524;54.364;10.072;2023-03-14T06:25:39;2.37;;;2.17;;
5010;SDS011;2524;54.364;10.072;2023-03-14T06:28:04;5.43;;;2.73;;
5010;SDS011;2524;54.364;10.072;2023-03-14T06:30:30;3.80;;;2.60;;
5010;SDS011;2524;54.364;10.072;2023-03-14T06:32:56;6.30;;;2.40;;
5010;SDS011;2524;54.364;10.072;2023-03-14T06:35:22;6.90;;;2.70;;
5010;SDS011;2524;54.364;10.072;2023-03-14T06:37:48;5.60;;;3.00;;
5010;SDS011;2524;54.364;10.072;2023-03-14T06:40:13;8.10;;;3.07;;
5010;SDS011;2524;54.364;10.072;2023-03-14T06:42:43;6.23;;;2.77;;
5010;SDS011;2524;54.364;10.072;2023-03-14T06:45:09;7.40;;;3.23;;
5010;SDS011;2524;54.364;10.072;2023-03-14T06:47:38;8.23;;;3.50;;
5010;SDS011;2524;54.364;10.072;2023-03-14T06:50:07;4.97;;;3.13;;
5010;SDS011;2524;54.364;10.072;2023-03-14T06:52:34;10.60;;;3.87;;
5010;SDS011;2524;54.364;10.072;2023-03-14T06:54:59;9.53;;;4.00;;
5010;SDS011;2524;54.364;10.072;2023-03-14T06:57:25;6.83;;;4.07;;
5010;SDS011;2524;54.364;10.072;2023-03-14T06:59:51;7.13;;;3.93;;
5010;SDS011;2524;54.364;10.072;2023-03-14T07:02:16;4.53;;;3.43;;
5010;SDS011;2524;54.364;10.072;2023-03-14T07:04:42;6.40;;;3.37;;
5010;SDS011;2524;54.364;10.072;2023-03-14T07:07:07;9.50;;;4.27;;
5010;SDS011;2524;54.364;10.072;2023-03-14T07:09:33;7.13;;;3.87;;
5010;SDS011;2524;54.364;10.072;2023-03-14T07:11:59;6.90;;;3.80;;
5010;SDS011;2524;54.364;10.072;2023-03-14T07:14:25;5.50;;;3.83;;
5010;SDS011;2524;54.364;10.072;2023-03-14T07:16:51;6.40;;;3.50;;
5010;SDS011;2524;54.364;10.072;2023-03-14T07:19:17;7.27;;;3.40;;
5010;SDS011;2524;54.364;10.072;2023-03-14T07:21:42;4.53;;;3.00;;
5010;SDS011;2524;54.364;10.072;2023-03-14T07:24:08;4.77;;;3.30;;
5010;SDS011;2524;54.364;10.072;2023-03-14T07:26:34;9.07;;;4.30;;
5010;SDS011;2524;54.364;10.072;2023-03-14T07:28:59;3.00;;;2.70;;
5010;SDS011;2524;54.364;10.072;2023-03-14T07:31:28;3.63;;;3.13;;
5010;SDS011;2524;54.364;10.072;2023-03-14T07:33:54;2.80;;;2.60;;
5010;SDS011;2524;54.364;10.072;2023-03-14T07:36:19;3.23;;;2.93;;
5010;SDS011;2524;54.364;10.072;2023-03-14T07:38:45;3.93;;;3.53;;
5010;SDS011;2524;54.364;10.072;2023-03-14T07:41:12;9.50;;;3.90;;
5010;SDS011;2524;54.364;10.072;2023-03-14T07:43:38;3.17;;;2.97;;
5010;SDS011;2524;54.364;10.072;2023-03-14T07:46:04;5.33;;;3.60;;
5010;SDS011;2524;54.364;10.072;2023-03-14T07:48:29;3.83;;;2.53;;
5010;SDS011;2524;54.364;10.072;2023-03-14T07:50:55;8.87;;;4.37;;
5010;SDS011;2524;54.364;10.072;2023-03-14T07:53:21;5.13;;;2.97;;
5010;SDS011;2524;54.364;10.072;2023-03-14T07:55:47;11.03;;;3.77;;
5010;SDS011;2524;54.364;10.072;2023-03-14T07:58:15;7.80;;;3.73;;
5010;SDS011;2524;54.364;10.072;2023-03-14T08:00:41;6.20;;;3.27;;
5010;SDS011;2524;54.364;10.072;2023-03-14T08:03:07;3.97;;;2.97;;
5010;SDS011;2524;54.364;10.072;2023-03-14T08:05:37;5.10;;;2.63;;
5010;SDS011;2524;54.364;10.072;2023-03-14T08:08:04;3.13;;;2.70;;
5010;SDS011;2524;54.364;10.072;2023-03-14T08:10:30;4.13;;;3.00;;
5010;SDS011;2524;54.364;10.072;2023-03-14T08:12:57;4.43;;;3.07;;
5010;SDS011;2524;54.364;10.072;2023-03-14T08:15:24;3.63;;;3.30;;
5010;SDS011;2524;54.364;10.072;2023-03-14T08:17:50;2.83;;;2.60;;
5010;SDS011;2524;54.364;10.072;2023-03-14T08:20:18;6.47;;;2.87;;
5010;SDS011;2524;54.364;10.072;2023-03-14T08:22:44;4.33;;;3.30;;
5010;SDS011;2524;54.364;10.072;2023-03-14T08:25:09;5.40;;;3.10;;
5010;SDS011;2524;54.364;10.072;2023-03-14T08:27:35;5.97;;;3.20;;
5010;SDS011;2524;54.364;10.072;2023-03-14T08:30:04;4.93;;;3.17;;
5010;SDS011;2524;54.364;10.072;2023-03-14T08:32:32;3.60;;;2.60;;
5010;SDS011;2524;54.364;10.072;2023-03-14T08:34:58;2.77;;;2.53;;
5010;SDS011;2524;54.364;10.072;2023-03-14T08:37:23;3.17;;;2.83;;
5010;SDS011;2524;54.364;10.072;2023-03-14T08:39:50;2.73;;;2.53;;
5010;SDS011;2524;54.364;10.072;2023-03-14T08:42:16;3.17;;;2.23;;
5010;SDS011;2524;54.364;10.072;2023-03-14T08:44:42;2.27;;;2.10;;
5010;SDS011;2524;54.364;10.072;2023-03-14T08:47:07;1.80;;;1.70;;
5010;SDS011;2524;54.364;10.072;2023-03-14T08:49:33;0.80;;;0.80;;
5010;SDS011;2524;54.364;10.072;2023-03-14T08:51:59;1.60;;;1.10;;
5010;SDS011;2524;54.364;10.072;2023-03-14T08:54:27;0.90;;;0.90;;
5010;SDS011;2524;54.364;10.072;2023-03-14T08:56:52;1.33;;;0.80;;
5010;SDS011;2524;54.364;10.072;2023-03-14T08:59:18;0.87;;;0.87;;
5010;SDS011;2524;54.364;10.072;2023-03-14T09:01:43;0.73;;;0.73;;
5010;SDS011;2524;54.364;10.072;2023-03-14T09:04:09;0.90;;;0.90;;
5010;SDS011;2524;54.364;10.072;2023-03-14T09:06:35;0.60;;;0.60;;
5010;SDS011;2524;54.364;10.072;2023-03-14T09:09:01;1.37;;;1.27;;
5010;SDS011;2524;54.364;10.072;2023-03-14T09:11:27;3.30;;;1.27;;
5010;SDS011;2524;54.364;10.072;2023-03-14T09:13:52;1.90;;;1.30;;
5010;SDS011;2524;54.364;10.072;2023-03-14T09:16:18;1.37;;;1.00;;
5010;SDS011;2524;54.364;10.072;2023-03-14T09:18:44;2.10;;;0.97;;
5010;SDS011;2524;54.364;10.072;2023-03-14T09:21:09;2.80;;;1.13;;
5010;SDS011;2524;54.364;10.072;2023-03-14T09:23:35;2.13;;;1.93;;
5010;SDS011;2524;54.364;10.072;2023-03-14T09:26:01;2.87;;;1.37;;
5010;SDS011;2524;54.364;10.072;2023-03-14T09:28:26;1.07;;;1.07;;
5010;SDS011;2524;54.364;10.072;2023-03-14T09:30:52;1.20;;;0.97;;
5010;SDS011;2524;54.364;10.072;2023-03-14T09:33:19;3.70;;;1.03;;
5010;SDS011;2524;54.364;10.072;2023-03-14T09:35:45;2.63;;;1.03;;
5010;SDS011;2524;54.364;10.072;2023-03-14T09:38:11;1.73;;;1.00;;
5010;SDS011;2524;54.364;10.072;2023-03-14T09:40:38;4.00;;;1.30;;
5010;SDS011;2524;54.364;10.072;2023-03-14T09:43:04;1.13;;;1.00;;
5010;SDS011;2524;54.364;10.072;2023-03-14T09:45:36;1.63;;;1.10;;
5010;SDS011;2524;54.364;10.072;2023-03-14T09:48:05;1.00;;;0.90;;
5010;SDS011;2524;54.364;10.072;2023-03-14T09:50:38;1.23;;;0.83;;
5010;SDS011;2524;54.364;10.072;2023-03-14T09:53:09;1.23;;;0.83;;
5010;SDS011;2524;54.364;10.072;2023-03-14T09:55:39;4.07;;;1.47;;
5010;SDS011;2524;54.364;10.072;2023-03-14T09:58:16;4.03;;;0.87;;
5010;SDS011;2524;54.364;10.072;2023-03-14T10:00:44;1.00;;;0.83;;
5010;SDS011;2524;54.364;10.072;2023-03-14T10:05:38;0.70;;;0.70;;
5010;SDS011;2524;54.364;10.072;2023-03-14T10:08:11;1.90;;;0.80;;
5010;SDS011;2524;54.364;10.072;2023-03-14T10:10:37;1.43;;;0.83;;
5010;SDS011;2524;54.364;10.072;2023-03-14T10:15:47;0.80;;;0.80;;
5010;SDS011;2524;54.364;10.072;2023-03-14T10:18:16;1.63;;;1.50;;
5010;SDS011;2524;54.364;10.072;2023-03-14T10:20:43;1.20;;;1.10;;
5010;SDS011;2524;54.364;10.072;2023-03-14T10:25:45;1.33;;;1.10;;
5010;SDS011;2524;54.364;10.072;2023-03-14T10:28:26;1.27;;;1.00;;
5010;SDS011;2524;54.364;10.072;2023-03-14T10:30:55;0.90;;;0.90;;
5010;SDS011;2524;54.364;10.072;2023-03-14T10:33:24;1.83;;;1.60;;
5010;SDS011;2524;54.364;10.072;2023-03-14T10:36:01;1.63;;;1.37;;
5010;SDS011;2524;54.364;10.072;2023-03-14T10:38:30;2.33;;;0.90;;
5010;SDS011;2524;54.364;10.072;2023-03-14T10:40:57;3.10;;;1.10;;
5010;SDS011;2524;54.364;10.072;2023-03-14T10:43:30;2.13;;;1.17;;
5010;SDS011;2524;54.364;10.072;2023-03-14T10:45:59;2.33;;;1.27;;
5010;SDS011;2524;54.364;10.072;2023-03-14T10:48:42;5.50;;;1.17;;
5010;SDS011;2524;54.364;10.072;2023-03-14T10:51:11;1.90;;;1.40;;
5010;SDS011;2524;54.364;10.072;2023-03-14T10:53:47;1.73;;;1.60;;
5010;SDS011;2524;54.364;10.072;2023-03-14T10:56:27;3.70;;;1.53;;
5010;SDS011;2524;54.364;10.072;2023-03-14T10:58:59;2.83;;;1.70;;
5010;SDS011;2524;54.364;10.072;2023-03-14T11:04:13;3.13;;;1.70;;
5010;SDS011;2524;54.364;10.072;2023-03-14T11:15:22;4.53;;;1.27;;
5010;SDS011;2524;54.364;10.072;2023-03-14T11:18:36;2.30;;;1.40;;
5010;SDS011;2524;54.364;10.072;2023-03-14T11:26:28;1.77;;;1.20;;
5010;SDS011;2524;54.364;10.072;2023-03-14T11:31:38;2.30;;;1.20;;
5010;SDS011;2524;54.364;10.072;2023-03-14T11:36:41;5.83;;;1.80;;
5010;SDS011;2524;54.364;10.072;2023-03-14T11:39:51;8.03;;;2.47;;
5010;SDS011;2524;54.364;10.072;2023-03-14T11:42:21;3.77;;;1.73;;
5010;SDS011;2524;54.364;10.072;2023-03-14T11:44:48;6.10;;;2.13;;
5010;SDS011;2524;54.364;10.072;2023-03-14T11:47:34;3.10;;;1.63;;
5010;SDS011;2524;54.364;10.072;2023-03-14T11:50:07;6.80;;;1.90;;
5010;SDS011;2524;54.364;10.072;2023-03-14T11:52:44;3.27;;;1.83;;
5010;SDS011;2524;54.364;10.072;2023-03-14T11:55:13;8.63;;;2.00;;
5010;SDS011;2524;54.364;10.072;2023-03-14T11:57:45;6.07;;;2.07;;
5010;SDS011;2524;54.364;10.072;2023-03-14T12:00:18;4.53;;;1.50;;
5010;SDS011;2524;54.364;10.072;2023-03-14T12:10:40;5.27;;;1.73;;
5010;SDS011;2524;54.364;10.072;2023-03-14T12:13:11;3.63;;;1.67;;
5010;SDS011;2524;54.364;10.072;2023-03-14T12:15:40;2.73;;;1.40;;
5010;SDS011;2524;54.364;10.072;2023-03-14T12:18:29;5.63;;;2.60;;
5010;SDS011;2524;54.364;10.072;2023-03-14T12:21:00;7.90;;;2.23;;
5010;SDS011;2524;54.364;10.072;2023-03-14T12:23:28;12.13;;;1.90;;
5010;SDS011;2524;54.364;10.072;2023-03-14T12:28:44;3.57;;;1.63;;
5010;SDS011;2524;54.364;10.072;2023-03-14T12:39:20;8.73;;;2.03;;
5010;SDS011;2524;54.364;10.072;2023-03-14T12:42:11;3.30;;;1.50;;
5010;SDS011;2524;54.364;10.072;2023-03-14T12:44:39;8.40;;;2.10;;
5010;SDS011;2524;54.364;10.072;2023-03-14T12:49:44;6.10;;;2.20;;
5010;SDS011;2524;54.364;10.072;2023-03-14T12:52:21;6.33;;;2.20;;
5010;SDS011;2524;54.364;10.072;2023-03-14T12:57:36;4.47;;;1.90;;
5010;SDS011;2524;54.364;10.072;2023-03-14T13:05:51;4.87;;;2.00;;
5010;SDS011;2524;54.364;10.072;2023-03-14T13:11:21;11.57;;;2.37;;
5010;SDS011;2524;54.364;10.072;2023-03-14T13:13:52;9.60;;;2.33;;
5010;SDS011;2524;54.364;10.072;2023-03-14T13:16:22;7.07;;;2.30;;
5010;SDS011;2524;54.364;10.072;2023-03-14T13:18:49;8.33;;;2.57;;
5010;SDS011;2524;54.364;10.072;2023-03-14T13:21:26;2.77;;;1.63;;
5010;SDS011;2524;54.364;10.072;2023-03-14T13:23:57;7.13;;;1.90;;
5010;SDS011;2524;54.364;10.072;2023-03-14T13:26:25;4.63;;;1.67;;
5010;SDS011;2524;54.364;10.072;2023-03-14T13:28:57;3.17;;;1.50;;
5010;SDS011;2524;54.364;10.072;2023-03-14T13:31:24;8.90;;;1.90;;
5010;SDS011;2524;54.364;10.072;2023-03-14T13:33:58;13.00;;;2.23;;
5010;SDS011;2524;54.364;10.072;2023-03-14T13:36:29;4.50;;;1.60;;
5010;SDS011;2524;54.364;10.072;2023-03-14T13:38:59;3.67;;;1.90;;
5010;SDS011;2524;54.364;10.072;2023-03-14T13:41:26;3.33;;;1.90;;
5010;SDS011;2524;54.364;10.072;2023-03-14T13:44:03;4.50;;;1.50;;
5010;SDS011;2524;54.364;10.072;2023-03-14T13:46:33;6.40;;;1.80;;
5010;SDS011;2524;54.364;10.072;2023-03-14T13:49:03;3.00;;;1.70;;
5010;SDS011;2524;54.364;10.072;2023-03-14T13:51:31;3.13;;;1.20;;
5010;SDS011;2524;54.364;10.072;2023-03-14T13:54:01;3.00;;;1.13;;
5010;SDS011;2524;54.364;10.072;2023-03-14T13:56:29;2.43;;;1.17;;
5010;SDS011;2524;54.364;10.072;2023-03-14T13:58:56;6.87;;;1.53;;
5010;SDS011;2524;54.364;10.072;2023-03-14T14:03:54;4.20;;;1.50;;
5010;SDS011;2524;54.364;10.072;2023-03-14T14:14:50;6.33;;;1.80;;
5010;SDS011;2524;54.364;10.072;2023-03-14T14:17:25;4.33;;;1.80;;
5010;SDS011;2524;54.364;10.072;2023-03-14T14:19:54;4.90;;;1.83;;
5010;SDS011;2524;54.364;10.072;2023-03-14T14:22:21;2.97;;;1.37;;
5010;SDS011;2524;54.364;10.072;2023-03-14T14:24:47;2.93;;;1.50;;
5010;SDS011;2524;54.364;10.072;2023-03-14T14:27:14;4.50;;;1.40;;
5010;SDS011;2524;54.364;10.072;2023-03-14T14:30:00;2.27;;;1.40;;
5010;SDS011;2524;54.364;10.072;2023-03-14T14:32:47;1.37;;;0.97;;
5010;SDS011;2524;54.364;10.072;2023-03-14T14:35:22;5.13;;;1.30;;
5010;SDS011;2524;54.364;10.072;2023-03-14T14:37:49;3.77;;;1.23;;
5010;SDS011;2524;54.364;10.072;2023-03-14T14:42:43;2.57;;;1.40;;
5010;SDS011;2524;54.364;10.072;2023-03-14T14:45:13;3.40;;;1.73;;
5010;SDS011;2524;54.364;10.072;2023-03-14T14:47:54;2.60;;;1.50;;
5010;SDS011;2524;54.364;10.072;2023-03-14T14:50:28;2.70;;;1.50;;
5010;SDS011;2524;54.364;10.072;2023-03-14T14:52:59;3.43;;;1.83;;
5010;SDS011;2524;54.364;10.072;2023-03-14T14:55:44;6.57;;;2.20;;
5010;SDS011;2524;54.364;10.072;2023-03-14T15:00:53;2.00;;;1.47;;
5010;SDS011;2524;54.364;10.072;2023-03-14T15:03:28;4.20;;;1.80;;
5010;SDS011;2524;54.364;10.072;2023-03-14T15:05:56;3.60;;;1.67;;
5010;SDS011;2524;54.364;10.072;2023-03-14T15:08:22;4.40;;;1.67;;
5010;SDS011;2524;54.364;10.072;2023-03-14T15:10:49;4.07;;;1.63;;
5010;SDS011;2524;54.364;10.072;2023-03-14T15:13:14;10.73;;;2.40;;
5010;SDS011;2524;54.364;10.072;2023-03-14T15:15:40;7.80;;;2.00;;
5010;SDS011;2524;54.364;10.072;2023-03-14T15:18:14;6.20;;;1.80;;
5010;SDS011;2524;54.364;10.072;2023-03-14T15:20:43;1.47;;;1.37;;
5010;SDS011;2524;54.364;10.072;2023-03-14T15:23:14;7.30;;;2.03;;
5010;SDS011;2524;54.364;10.072;2023-03-14T15:25:41;8.10;;;2.10;;
5010;SDS011;2524;54.364;10.072;2023-03-14T15:28:20;3.73;;;2.00;;
5010;SDS011;2524;54.364;10.072;2023-03-14T15:30:51;1.83;;;1.30;;
5010;SDS011;2524;54.364;10.072;2023-03-14T15:33:21;3.60;;;1.60;;
5010;SDS011;2524;54.364;10.072;2023-03-14T15:35:48;5.60;;;1.40;;
5010;SDS011;2524;54.364;10.072;2023-03-14T15:38:15;2.97;;;1.67;;
5010;SDS011;2524;54.364;10.072;2023-03-14T15:40:44;2.60;;;1.53;;
5010;SDS011;2524;54.364;10.072;2023-03-14T15:43:10;4.70;;;1.27;;
5010;SDS011;2524;54.364;10.072;2023-03-14T15:45:35;5.13;;;1.90;;
5010;SDS011;2524;54.364;10.072;2023-03-14T15:48:01;1.40;;;1.23;;
5010;SDS011;2524;54.364;10.072;2023-03-14T15:50:27;3.50;;;1.70;;
5010;SDS011;2524;54.364;10.072;2023-03-14T15:52:53;6.50;;;1.93;;
5010;SDS011;2524;54.364;10.072;2023-03-14T15:55:19;7.80;;;2.70;;
5010;SDS011;2524;54.364;10.072;2023-03-14T15:57:44;3.53;;;1.80;;
5010;SDS011;2524;54.364;10.072;2023-03-14T16:00:14;4.83;;;1.80;;
5010;SDS011;2524;54.364;10.072;2023-03-14T16:02:46;7.73;;;1.50;;
5010;SDS011;2524;54.364;10.072;2023-03-14T16:05:12;4.47;;;1.93;;
5010;SDS011;2524;54.364;10.072;2023-03-14T16:07:39;6.70;;;1.87;;
5010;SDS011;2524;54.364;10.072;2023-03-14T16:10:05;4.60;;;2.00;;
5010;SDS011;2524;54.364;10.072;2023-03-14T16:12:32;2.23;;;1.43;;
5010;SDS011;2524;54.364;10.072;2023-03-14T16:14:58;3.37;;;1.80;;
5010;SDS011;2524;54.364;10.072;2023-03-14T16:17:24;5.53;;;1.20;;
5010;SDS011;2524;54.364;10.072;2023-03-14T16:19:50;5.60;;;1.43;;
5010;SDS011;2524;54.364;10.072;2023-03-14T16:22:15;4.63;;;1.93;;
5010;SDS011;2524;54.364;10.072;2023-03-14T16:24:41;3.43;;;1.00;;
5010;SDS011;2524;54.364;10.072;2023-03-14T16:27:07;3.53;;;1.70;;
5010;SDS011;2524;54.364;10.072;2023-03-14T16:29:34;3.07;;;1.07;;
5010;SDS011;2524;54.364;10.072;2023-03-14T16:31:59;2.63;;;1.37;;
5010;SDS011;2524;54.364;10.072;2023-03-14T16:34:25;2.40;;;1.30;;
5010;SDS011;2524;54.364;10.072;2023-03-14T16:36:51;5.70;;;1.80;;